sensor_id;sensor_type;location;lat;lon;timestamp;P1;durP1;ratioP1;P2;durP2;ratioP2
74044;SDS011;62389;51.412;5.436;2023-02-28T00:00:26;9.32;;;4.75;;
74044;SDS011;62389;51.412;5.436;2023-02-28T00:02:52;5.57;;;4.53;;
74044;SDS011;62389;51.412;5.436;2023-02-28T00:05:18;9.50;;;4.82;;
74044;SDS011;62389;51.412;5.436;2023-02-28T00:07:45;8.65;;;4.40;;
74044;SDS011;62389;51.412;5.436;2023-02-28T00:10:12;6.53;;;4.32;;
74044;SDS011;62389;51.412;5.436;2023-02-28T00:12:39;9.10;;;5.53;;
74044;SDS011;62389;51.412;5.436;2023-02-28T00:15:05;8.75;;;4.40;;
74044;SDS011;62389;51.412;5.436;2023-02-28T00:17:33;10.52;;;4.07;;
74044;SDS011;62389;51.412;5.436;2023-02-28T00:19:58;8.60;;;4.82;;
74044;SDS011;62389;51.412;5.436;2023-02-28T00:22:37;9.85;;;5.18;;
74044;SDS011;62389;51.412;5.436;2023-02-28T00:25:04;9.77;;;4.70;;
74044;SDS011;62389;51.412;5.436;2023-02-28T00:27:30;11.48;;;4.93;;
74044;SDS011;62389;51.412;5.436;2023-02-28T00:29:55;9.50;;;5.50;;
74044;SDS011;62389;51.412;5.436;2023-02-28T00:32:20;7.18;;;4.50;;
74044;SDS011;62389;51.412;5.436;2023-02-28T00:34:46;9.57;;;4.80;;
74044;SDS011;62389;51.412;5.436;2023-02-28T00:37:11;11.20;;;5.72;;
74044;SDS011;62389;51.412;5.436;2023-02-28T00:39:37;8.68;;;5.10;;
74044;SDS011;62389;51.412;5.436;2023-02-28T00:42:04;12.45;;;5.97;;
74044;SDS011;62389;51.412;5.436;2023-02-28T00:44:30;11.25;;;5.15;;
74044;SDS011;62389;51.412;5.436;2023-02-28T00:46:56;9.13;;;5.05;;
74044;SDS011;62389;51.412;5.436;2023-02-28T00:49:22;9.30;;;4.95;;
74044;SDS011;62389;51.412;5.436;2023-02-28T00:51:49;9.75;;;5.28;;
74044;SDS011;62389;51.412;5.436;2023-02-28T00:54:14;13.05;;;5.50;;
74044;SDS011;62389;51.412;5.436;2023-02-28T00:56:40;8.55;;;5.20;;
74044;SDS011;62389;51.412;5.436;2023-02-28T00:59:05;10.30;;;4.75;;
74044;SDS011;62389;51.412;5.436;2023-02-28T01:01:31;12.00;;;5.63;;
74044;SDS011;62389;51.412;5.436;2023-02-28T01:03:57;9.43;;;5.47;;
74044;SDS011;62389;51.412;5.436;2023-02-28T01:06:22;8.23;;;5.20;;
74044;SDS011;62389;51.412;5.436;2023-02-28T01:08:48;11.05;;;5.40;;
74044;SDS011;62389;51.412;5.436;2023-02-28T01:11:15;7.53;;;4.72;;
74044;SDS011;62389;51.412;5.436;2023-02-28T01:16:07;12.38;;;5.55;;
74044;SDS011;62389;51.412;5.436;2023-02-28T01:18:33;11.18;;;5.32;;
74044;SDS011;62389;51.412;5.436;2023-02-28T01:21:02;10.32;;;5.30;;
74044;SDS011;62389;51.412;5.436;2023-02-28T01:23:28;9.98;;;5.43;;
74044;SDS011;62389;51.412;5.436;2023-02-28T01:25:54;9.93;;;5.68;;
74044;SDS011;62389;51.412;5.436;2023-02-28T01:28:20;12.75;;;6.63;;
74044;SDS011;62389;51.412;5.436;2023-02-28T01:30:49;8.90;;;5.57;;
74044;SDS011;62389;51.412;5.436;2023-02-28T01:33:15;10.48;;;5.43;;
74044;SDS011;62389;51.412;5.436;2023-02-28T01:35:41;8.82;;;5.43;;
74044;SDS011;62389;51.412;5.436;2023-02-28T01:38:06;10.63;;;6.47;;
74044;SDS011;62389;51.412;5.436;2023-02-28T01:40:31;8.07;;;5.38;;
74044;SDS011;62389;51.412;5.436;2023-02-28T01:42:57;7.05;;;5.07;;
74044;SDS011;62389;51.412;5.436;2023-02-28T01:45:27;11.98;;;5.13;;
74044;SDS011;62389;51.412;5.436;2023-02-28T01:48:03;9.45;;;4.90;;
74044;SDS011;62389;51.412;5.436;2023-02-28T01:50:34;11.32;;;5.00;;
74044;SDS011;62389;51.412;5.436;2023-02-28T01:53:05;9.77;;;5.85;;
74044;SDS011;62389;51.412;5.436;2023-02-28T01:55:32;10.80;;;5.38;;
74044;SDS011;62389;51.412;5.436;2023-02-28T01:58:00;7.90;;;4.50;;
74044;SDS011;62389;51.412;5.436;2023-02-28T02:00:28;9.55;;;5.15;;
74044;SDS011;62389;51.412;5.436;2023-02-28T02:02:55;7.93;;;4.88;;
74044;SDS011;62389;51.412;5.436;2023-02-28T02:05:28;6.68;;;4.38;;
74044;SDS011;62389;51.412;5.436;2023-02-28T02:08:03;9.60;;;4.82;;
74044;SDS011;62389;51.412;5.436;2023-02-28T02:10:41;7.63;;;4.93;;
74044;SDS011;62389;51.412;5.436;2023-02-28T02:13:30;8.63;;;5.40;;
74044;SDS011;62389;51.412;5.436;2023-02-28T02:16:06;9.75;;;5.15;;
74044;SDS011;62389;51.412;5.436;2023-02-28T02:19:28;10.20;;;5.90;;
74044;SDS011;62389;51.412;5.436;2023-02-28T02:24:23;8.05;;;4.95;;
74044;SDS011;62389;51.412;5.436;2023-02-28T02:27:05;9.60;;;5.05;;
74044;SDS011;62389;51.412;5.436;2023-02-28T02:35:21;8.07;;;5.03;;
74044;SDS011;62389;51.412;5.436;2023-02-28T02:37:55;8.98;;;5.68;;
74044;SDS011;62389;51.412;5.436;2023-02-28T02:43:20;9.18;;;4.95;;
74044;SDS011;62389;51.412;5.436;2023-02-28T02:45:59;10.15;;;5.38;;
74044;SDS011;62389;51.412;5.436;2023-02-28T02:48:31;9.18;;;4.95;;
74044;SDS011;62389;51.412;5.436;2023-02-28T02:51:02;8.57;;;5.07;;
74044;SDS011;62389;51.412;5.436;2023-02-28T02:53:37;12.68;;;5.47;;
74044;SDS011;62389;51.412;5.436;2023-02-28T02:56:07;7.47;;;5.18;;
74044;SDS011;62389;51.412;5.436;2023-02-28T02:58:35;8.98;;;5.00;;
74044;SDS011;62389;51.412;5.436;2023-02-28T03:01:07;9.38;;;4.38;;
74044;SDS011;62389;51.412;5.436;2023-02-28T03:03:35;8.43;;;5.18;;
74044;SDS011;62389;51.412;5.436;2023-02-28T03:06:02;11.82;;;5.15;;
74044;SDS011;62389;51.412;5.436;2023-02-28T03:08:29;6.55;;;4.55;;
74044;SDS011;62389;51.412;5.436;2023-02-28T03:10:59;12.75;;;4.68;;
74044;SDS011;62389;51.412;5.436;2023-02-28T03:13:38;8.90;;;5.20;;
74044;SDS011;62389;51.412;5.436;2023-02-28T03:19:10;7.50;;;4.28;;
74044;SDS011;62389;51.412;5.436;2023-02-28T03:21:43;8.00;;;4.93;;
74044;SDS011;62389;51.412;5.436;2023-02-28T03:27:11;9.05;;;4.68;;
74044;SDS011;62389;51.412;5.436;2023-02-28T03:29:48;7.70;;;4.28;;
74044;SDS011;62389;51.412;5.436;2023-02-28T03:32:42;10.73;;;4.75;;
74044;SDS011;62389;51.412;5.436;2023-02-28T03:35:22;7.30;;;4.32;;
74044;SDS011;62389;51.412;5.436;2023-02-28T03:37:52;8.23;;;4.82;;
74044;SDS011;62389;51.412;5.436;2023-02-28T03:40:23;8.73;;;4.57;;
74044;SDS011;62389;51.412;5.436;2023-02-28T03:42:54;7.22;;;4.22;;
74044;SDS011;62389;51.412;5.436;2023-02-28T03:45:24;7.57;;;4.70;;
74044;SDS011;62389;51.412;5.436;2023-02-28T03:47:53;9.63;;;4.78;;
74044;SDS011;62389;51.412;5.436;2023-02-28T03:50:27;12.18;;;4.90;;
74044;SDS011;62389;51.412;5.436;2023-02-28T03:53:42;7.68;;;4.35;;
74044;SDS011;62389;51.412;5.436;2023-02-28T03:58:51;10.48;;;4.82;;
74044;SDS011;62389;51.412;5.436;2023-02-28T04:01:25;10.15;;;4.60;;
74044;SDS011;62389;51.412;5.436;2023-02-28T04:03:58;9.80;;;4.88;;
74044;SDS011;62389;51.412;5.436;2023-02-28T04:06:24;6.82;;;4.22;;
74044;SDS011;62389;51.412;5.436;2023-02-28T04:08:50;9.07;;;5.05;;
74044;SDS011;62389;51.412;5.436;2023-02-28T04:13:44;10.25;;;4.95;;
74044;SDS011;62389;51.412;5.436;2023-02-28T04:16:09;8.93;;;4.80;;
74044;SDS011;62389;51.412;5.436;2023-02-28T04:18:40;9.02;;;4.88;;
74044;SDS011;62389;51.412;5.436;2023-02-28T04:21:08;8.30;;;4.30;;
74044;SDS011;62389;51.412;5.436;2023-02-28T04:23:34;8.77;;;4.90;;
74044;SDS011;62389;51.412;5.436;2023-02-28T04:25:59;6.85;;;4.70;;
74044;SDS011;62389;51.412;5.436;2023-02-28T04:28:25;8.77;;;4.53;;
74044;SDS011;62389;51.412;5.436;2023-02-28T04:30:54;8.93;;;4.47;;
74044;SDS011;62389;51.412;5.436;2023-02-28T04:33:23;8.82;;;4.18;;
74044;SDS011;62389;51.412;5.436;2023-02-28T04:35:57;8.23;;;4.40;;
74044;SDS011;62389;51.412;5.436;2023-02-28T04:38:25;8.23;;;4.32;;
74044;SDS011;62389;51.412;5.436;2023-02-28T04:40:50;9.68;;;4.78;;
74044;SDS011;62389;51.412;5.436;2023-02-28T04:43:15;6.85;;;4.18;;
74044;SDS011;62389;51.412;5.436;2023-02-28T04:45:41;6.85;;;4.53;;
74044;SDS011;62389;51.412;5.436;2023-02-28T04:48:06;9.55;;;4.80;;
74044;SDS011;62389;51.412;5.436;2023-02-28T04:50:31;9.93;;;4.68;;
74044;SDS011;62389;51.412;5.436;2023-02-28T04:52:57;8.43;;;4.38;;
74044;SDS011;62389;51.412;5.436;2023-02-28T04:55:22;7.07;;;4.10;;
74044;SDS011;62389;51.412;5.436;2023-02-28T04:57:47;7.70;;;4.25;;
74044;SDS011;62389;51.412;5.436;2023-02-28T05:00:13;6.05;;;4.05;;
74044;SDS011;62389;51.412;5.436;2023-02-28T05:02:41;8.52;;;3.83;;
74044;SDS011;62389;51.412;5.436;2023-02-28T05:05:07;8.70;;;4.30;;
74044;SDS011;62389;51.412;5.436;2023-02-28T05:07:32;8.05;;;4.00;;
74044;SDS011;62389;51.412;5.436;2023-02-28T05:09:57;6.82;;;4.28;;
74044;SDS011;62389;51.412;5.436;2023-02-28T05:12:23;6.07;;;4.03;;
74044;SDS011;62389;51.412;5.436;2023-02-28T05:14:48;9.70;;;4.03;;
74044;SDS011;62389;51.412;5.436;2023-02-28T05:17:13;7.35;;;4.10;;
74044;SDS011;62389;51.412;5.436;2023-02-28T05:19:39;6.60;;;3.65;;
74044;SDS011;62389;51.412;5.436;2023-02-28T05:22:04;9.50;;;5.32;;
74044;SDS011;62389;51.412;5.436;2023-02-28T05:24:29;5.43;;;3.40;;
74044;SDS011;62389;51.412;5.436;2023-02-28T05:26:55;7.38;;;4.22;;
74044;SDS011;62389;51.412;5.436;2023-02-28T05:29:20;8.65;;;4.00;;
74044;SDS011;62389;51.412;5.436;2023-02-28T05:31:47;8.80;;;4.82;;
74044;SDS011;62389;51.412;5.436;2023-02-28T05:34:12;6.57;;;3.97;;
74044;SDS011;62389;51.412;5.436;2023-02-28T05:36:40;6.45;;;4.07;;
74044;SDS011;62389;51.412;5.436;2023-02-28T05:39:06;9.18;;;4.25;;
74044;SDS011;62389;51.412;5.436;2023-02-28T05:41:37;7.97;;;4.28;;
74044;SDS011;62389;51.412;5.436;2023-02-28T05:44:02;7.70;;;4.35;;
74044;SDS011;62389;51.412;5.436;2023-02-28T05:46:28;7.95;;;4.30;;
74044;SDS011;62389;51.412;5.436;2023-02-28T05:48:53;6.95;;;4.03;;
74044;SDS011;62389;51.412;5.436;2023-02-28T05:51:20;7.47;;;4.28;;
74044;SDS011;62389;51.412;5.436;2023-02-28T05:53:46;8.02;;;4.40;;
74044;SDS011;62389;51.412;5.436;2023-02-28T05:56:13;7.75;;;4.20;;
74044;SDS011;62389;51.412;5.436;2023-02-28T05:58:38;7.90;;;4.18;;
74044;SDS011;62389;51.412;5.436;2023-02-28T06:01:23;8.30;;;4.10;;
74044;SDS011;62389;51.412;5.436;2023-02-28T06:03:59;6.75;;;3.97;;
74044;SDS011;62389;51.412;5.436;2023-02-28T06:06:26;7.13;;;4.20;;
74044;SDS011;62389;51.412;5.436;2023-02-28T06:08:51;6.90;;;3.95;;
74044;SDS011;62389;51.412;5.436;2023-02-28T06:11:16;8.23;;;4.22;;
74044;SDS011;62389;51.412;5.436;2023-02-28T06:13:42;9.43;;;4.57;;
74044;SDS011;62389;51.412;5.436;2023-02-28T06:16:08;7.63;;;3.83;;
74044;SDS011;62389;51.412;5.436;2023-02-28T06:18:35;9.32;;;4.05;;
74044;SDS011;62389;51.412;5.436;2023-02-28T06:21:01;7.18;;;4.10;;
74044;SDS011;62389;51.412;5.436;2023-02-28T06:23:26;7.07;;;4.10;;
74044;SDS011;62389;51.412;5.436;2023-02-28T06:25:52;10.02;;;4.47;;
74044;SDS011;62389;51.412;5.436;2023-02-28T06:28:18;9.93;;;4.60;;
74044;SDS011;62389;51.412;5.436;2023-02-28T06:30:43;5.78;;;3.65;;
74044;SDS011;62389;51.412;5.436;2023-02-28T06:33:09;6.63;;;3.72;;
74044;SDS011;62389;51.412;5.436;2023-02-28T06:35:34;7.85;;;3.97;;
74044;SDS011;62389;51.412;5.436;2023-02-28T06:38:00;7.28;;;3.95;;
74044;SDS011;62389;51.412;5.436;2023-02-28T06:40:25;6.63;;;4.28;;
74044;SDS011;62389;51.412;5.436;2023-02-28T06:42:51;6.22;;;4.00;;
74044;SDS011;62389;51.412;5.436;2023-02-28T06:45:17;8.10;;;4.13;;
74044;SDS011;62389;51.412;5.436;2023-02-28T06:47:42;7.00;;;3.63;;
74044;SDS011;62389;51.412;5.436;2023-02-28T06:50:11;9.35;;;3.83;;
74044;SDS011;62389;51.412;5.436;2023-02-28T06:52:38;5.97;;;4.00;;
74044;SDS011;62389;51.412;5.436;2023-02-28T06:55:04;7.63;;;3.58;;
74044;SDS011;62389;51.412;5.436;2023-02-28T06:57:32;7.85;;;3.38;;
74044;SDS011;62389;51.412;5.436;2023-02-28T06:59:59;8.00;;;3.13;;
74044;SDS011;62389;51.412;5.436;2023-02-28T07:02:25;5.72;;;3.33;;
74044;SDS011;62389;51.412;5.436;2023-02-28T07:04:51;4.32;;;3.08;;
74044;SDS011;62389;51.412;5.436;2023-02-28T07:07:17;6.43;;;3.40;;
74044;SDS011;62389;51.412;5.436;2023-02-28T07:09:42;5.88;;;2.78;;
74044;SDS011;62389;51.412;5.436;2023-02-28T07:12:07;6.07;;;4.28;;
74044;SDS011;62389;51.412;5.436;2023-02-28T07:14:33;7.32;;;3.03;;
74044;SDS011;62389;51.412;5.436;2023-02-28T07:16:58;4.93;;;3.05;;
74044;SDS011;62389;51.412;5.436;2023-02-28T07:19:23;6.68;;;3.00;;
74044;SDS011;62389;51.412;5.436;2023-02-28T07:21:49;6.20;;;2.83;;
74044;SDS011;62389;51.412;5.436;2023-02-28T07:24:14;4.82;;;3.03;;
74044;SDS011;62389;51.412;5.436;2023-02-28T07:26:41;7.80;;;3.60;;
74044;SDS011;62389;51.412;5.436;2023-02-28T07:29:06;5.30;;;3.33;;
74044;SDS011;62389;51.412;5.436;2023-02-28T07:31:31;5.97;;;3.00;;
74044;SDS011;62389;51.412;5.436;2023-02-28T07:33:57;6.70;;;3.80;;
74044;SDS011;62389;51.412;5.436;2023-02-28T07:36:23;5.68;;;3.22;;
74044;SDS011;62389;51.412;5.436;2023-02-28T07:38:48;5.03;;;2.83;;
74044;SDS011;62389;51.412;5.436;2023-02-28T07:41:17;3.85;;;2.63;;
74044;SDS011;62389;51.412;5.436;2023-02-28T07:43:45;8.57;;;3.33;;
74044;SDS011;62389;51.412;5.436;2023-02-28T07:46:11;5.07;;;3.05;;
74044;SDS011;62389;51.412;5.436;2023-02-28T07:48:40;6.50;;;2.75;;
74044;SDS011;62389;51.412;5.436;2023-02-28T07:51:05;5.95;;;2.92;;
74044;SDS011;62389;51.412;5.436;2023-02-28T07:53:31;6.40;;;2.95;;
74044;SDS011;62389;51.412;5.436;2023-02-28T07:55:57;5.05;;;2.58;;
74044;SDS011;62389;51.412;5.436;2023-02-28T07:58:24;4.55;;;2.20;;
74044;SDS011;62389;51.412;5.436;2023-02-28T08:03:17;4.65;;;2.58;;
74044;SDS011;62389;51.412;5.436;2023-02-28T08:05:43;3.53;;;2.38;;
74044;SDS011;62389;51.412;5.436;2023-02-28T08:08:08;4.60;;;2.60;;
74044;SDS011;62389;51.412;5.436;2023-02-28T08:10:34;4.90;;;2.10;;
74044;SDS011;62389;51.412;5.436;2023-02-28T08:13:00;3.38;;;2.20;;
74044;SDS011;62389;51.412;5.436;2023-02-28T08:15:25;4.10;;;2.10;;
74044;SDS011;62389;51.412;5.436;2023-02-28T08:17:51;4.13;;;2.10;;
74044;SDS011;62389;51.412;5.436;2023-02-28T08:20:16;4.30;;;2.10;;
74044;SDS011;62389;51.412;5.436;2023-02-28T08:22:42;5.25;;;2.10;;
74044;SDS011;62389;51.412;5.436;2023-02-28T08:25:07;3.85;;;2.05;;
74044;SDS011;62389;51.412;5.436;2023-02-28T08:27:33;4.35;;;2.40;;
74044;SDS011;62389;51.412;5.436;2023-02-28T08:29:59;6.07;;;2.28;;
74044;SDS011;62389;51.412;5.436;2023-02-28T08:32:25;4.60;;;1.85;;
74044;SDS011;62389;51.412;5.436;2023-02-28T08:34:50;6.20;;;2.03;;
74044;SDS011;62389;51.412;5.436;2023-02-28T08:37:16;5.13;;;2.03;;
74044;SDS011;62389;51.412;5.436;2023-02-28T08:39:41;3.92;;;1.70;;
74044;SDS011;62389;51.412;5.436;2023-02-28T08:42:07;3.72;;;1.90;;
74044;SDS011;62389;51.412;5.436;2023-02-28T08:44:32;2.78;;;1.83;;
74044;SDS011;62389;51.412;5.436;2023-02-28T08:46:58;3.10;;;1.90;;
74044;SDS011;62389;51.412;5.436;2023-02-28T08:49:23;3.53;;;1.80;;
74044;SDS011;62389;51.412;5.436;2023-02-28T08:51:48;3.20;;;1.75;;
74044;SDS011;62389;51.412;5.436;2023-02-28T08:54:14;3.70;;;1.92;;
74044;SDS011;62389;51.412;5.436;2023-02-28T08:56:44;5.55;;;1.67;;
74044;SDS011;62389;51.412;5.436;2023-02-28T08:59:11;3.45;;;1.85;;
74044;SDS011;62389;51.412;5.436;2023-02-28T09:01:36;4.18;;;1.73;;
74044;SDS011;62389;51.412;5.436;2023-02-28T09:04:02;3.20;;;1.98;;
74044;SDS011;62389;51.412;5.436;2023-02-28T09:06:27;3.08;;;1.70;;
74044;SDS011;62389;51.412;5.436;2023-02-28T09:08:56;3.20;;;1.60;;
74044;SDS011;62389;51.412;5.436;2023-02-28T09:11:23;3.42;;;1.80;;
74044;SDS011;62389;51.412;5.436;2023-02-28T09:13:48;2.75;;;1.50;;
74044;SDS011;62389;51.412;5.436;2023-02-28T09:16:14;2.00;;;1.40;;
74044;SDS011;62389;51.412;5.436;2023-02-28T09:18:41;2.75;;;1.55;;
74044;SDS011;62389;51.412;5.436;2023-02-28T09:21:08;2.70;;;1.30;;
74044;SDS011;62389;51.412;5.436;2023-02-28T09:23:39;2.15;;;1.13;;
74044;SDS011;62389;51.412;5.436;2023-02-28T09:26:13;2.20;;;1.40;;
74044;SDS011;62389;51.412;5.436;2023-02-28T09:28:50;2.72;;;1.40;;
74044;SDS011;62389;51.412;5.436;2023-02-28T09:31:17;2.58;;;1.60;;
74044;SDS011;62389;51.412;5.436;2023-02-28T09:33:48;2.50;;;1.67;;
74044;SDS011;62389;51.412;5.436;2023-02-28T09:36:15;3.20;;;1.17;;
74044;SDS011;62389;51.412;5.436;2023-02-28T09:38:41;2.92;;;1.40;;
74044;SDS011;62389;51.412;5.436;2023-02-28T09:41:14;2.58;;;1.40;;
74044;SDS011;62389;51.412;5.436;2023-02-28T09:43:44;2.10;;;1.35;;
74044;SDS011;62389;51.412;5.436;2023-02-28T09:49:00;2.88;;;1.92;;
74044;SDS011;62389;51.412;5.436;2023-02-28T09:54:03;2.40;;;1.63;;
74044;SDS011;62389;51.412;5.436;2023-02-28T09:59:09;2.20;;;1.58;;
74044;SDS011;62389;51.412;5.436;2023-02-28T10:10:02;2.50;;;1.40;;
74044;SDS011;62389;51.412;5.436;2023-02-28T10:12:39;2.30;;;1.20;;
74044;SDS011;62389;51.412;5.436;2023-02-28T10:15:12;3.88;;;1.30;;
74044;SDS011;62389;51.412;5.436;2023-02-28T10:17:40;3.95;;;1.42;;
74044;SDS011;62389;51.412;5.436;2023-02-28T10:20:14;2.97;;;1.83;;
74044;SDS011;62389;51.412;5.436;2023-02-28T10:22:52;2.33;;;1.50;;
74044;SDS011;62389;51.412;5.436;2023-02-28T10:25:24;4.07;;;1.40;;
74044;SDS011;62389;51.412;5.436;2023-02-28T10:27:52;2.70;;;1.60;;
74044;SDS011;62389;51.412;5.436;2023-02-28T10:30:19;2.60;;;1.80;;
74044;SDS011;62389;51.412;5.436;2023-02-28T10:32:47;3.42;;;2.00;;
74044;SDS011;62389;51.412;5.436;2023-02-28T10:35:23;4.68;;;1.80;;
74044;SDS011;62389;51.412;5.436;2023-02-28T10:37:51;2.55;;;1.60;;
74044;SDS011;62389;51.412;5.436;2023-02-28T10:42:55;2.63;;;1.80;;
74044;SDS011;62389;51.412;5.436;2023-02-28T10:45:21;5.05;;;2.15;;
74044;SDS011;62389;51.412;5.436;2023-02-28T10:52:57;3.47;;;1.90;;
74044;SDS011;62389;51.412;5.436;2023-02-28T10:55:33;2.42;;;1.50;;
74044;SDS011;62389;51.412;5.436;2023-02-28T10:57:59;3.30;;;1.60;;
74044;SDS011;62389;51.412;5.436;2023-02-28T11:00:24;2.55;;;1.70;;
74044;SDS011;62389;51.412;5.436;2023-02-28T11:02:56;3.30;;;1.60;;
74044;SDS011;62389;51.412;5.436;2023-02-28T11:10:36;4.05;;;1.63;;
74044;SDS011;62389;51.412;5.436;2023-02-28T11:13:01;2.50;;;1.70;;
74044;SDS011;62389;51.412;5.436;2023-02-28T11:15:29;3.42;;;1.58;;
74044;SDS011;62389;51.412;5.436;2023-02-28T11:20:37;3.63;;;1.67;;
74044;SDS011;62389;51.412;5.436;2023-02-28T11:23:04;10.98;;;1.90;;
74044;SDS011;62389;51.412;5.436;2023-02-28T11:25:31;2.30;;;1.50;;
74044;SDS011;62389;51.412;5.436;2023-02-28T11:28:04;3.13;;;1.83;;
74044;SDS011;62389;51.412;5.436;2023-02-28T11:32:56;3.95;;;1.80;;
74044;SDS011;62389;51.412;5.436;2023-02-28T11:35:30;3.85;;;1.75;;
74044;SDS011;62389;51.412;5.436;2023-02-28T11:37:59;3.42;;;1.98;;
74044;SDS011;62389;51.412;5.436;2023-02-28T11:40:31;3.15;;;1.77;;
74044;SDS011;62389;51.412;5.436;2023-02-28T11:43:08;5.65;;;2.20;;
74044;SDS011;62389;51.412;5.436;2023-02-28T11:45:55;2.88;;;1.88;;
74044;SDS011;62389;51.412;5.436;2023-02-28T11:51:23;2.85;;;1.83;;
74044;SDS011;62389;51.412;5.436;2023-02-28T11:57:27;4.43;;;1.90;;
74044;SDS011;62389;51.412;5.436;2023-02-28T12:08:26;2.83;;;1.55;;
74044;SDS011;62389;51.412;5.436;2023-02-28T12:19:14;2.90;;;1.73;;
74044;SDS011;62389;51.412;5.436;2023-02-28T12:24:25;2.83;;;1.85;;
74044;SDS011;62389;51.412;5.436;2023-02-28T12:27:24;6.70;;;2.22;;
74044;SDS011;62389;51.412;5.436;2023-02-28T12:30:02;3.03;;;1.73;;
74044;SDS011;62389;51.412;5.436;2023-02-28T12:32:35;2.88;;;1.83;;
74044;SDS011;62389;51.412;5.436;2023-02-28T12:42:39;3.97;;;2.08;;
74044;SDS011;62389;51.412;5.436;2023-02-28T12:48:00;3.10;;;2.05;;
74044;SDS011;62389;51.412;5.436;2023-02-28T12:50:30;2.90;;;1.90;;
74044;SDS011;62389;51.412;5.436;2023-02-28T12:53:03;6.25;;;2.13;;
74044;SDS011;62389;51.412;5.436;2023-02-28T12:56:02;3.00;;;2.00;;
74044;SDS011;62389;51.412;5.436;2023-02-28T12:58:43;3.33;;;2.03;;
74044;SDS011;62389;51.412;5.436;2023-02-28T13:09:32;3.60;;;2.08;;
74044;SDS011;62389;51.412;5.436;2023-02-28T13:11:57;2.65;;;2.00;;
74044;SDS011;62389;51.412;5.436;2023-02-28T13:14:25;3.20;;;2.03;;
74044;SDS011;62389;51.412;5.436;2023-02-28T13:16:56;3.08;;;2.15;;
74044;SDS011;62389;51.412;5.436;2023-02-28T13:19:28;3.33;;;2.00;;
74044;SDS011;62389;51.412;5.436;2023-02-28T13:21:56;2.40;;;1.73;;
74044;SDS011;62389;51.412;5.436;2023-02-28T13:29:29;3.75;;;1.95;;
74044;SDS011;62389;51.412;5.436;2023-02-28T13:34:33;3.30;;;2.17;;
74044;SDS011;62389;51.412;5.436;2023-02-28T13:47:41;2.90;;;2.00;;
74044;SDS011;62389;51.412;5.436;2023-02-28T13:50:51;3.05;;;1.80;;
74044;SDS011;62389;51.412;5.436;2023-02-28T13:55:46;4.80;;;2.00;;
74044;SDS011;62389;51.412;5.436;2023-02-28T14:01:14;5.53;;;2.38;;
74044;SDS011;62389;51.412;5.436;2023-02-28T14:06:32;3.20;;;2.22;;
74044;SDS011;62389;51.412;5.436;2023-02-28T14:09:01;3.55;;;2.67;;
74044;SDS011;62389;51.412;5.436;2023-02-28T14:11:35;4.18;;;2.40;;
74044;SDS011;62389;51.412;5.436;2023-02-28T14:14:02;4.22;;;2.30;;
74044;SDS011;62389;51.412;5.436;2023-02-28T14:27:07;5.90;;;2.40;;
74044;SDS011;62389;51.412;5.436;2023-02-28T14:30:16;4.47;;;2.53;;
74044;SDS011;62389;51.412;5.436;2023-02-28T14:38:35;4.53;;;2.65;;
74044;SDS011;62389;51.412;5.436;2023-02-28T14:41:12;3.70;;;2.60;;
74044;SDS011;62389;51.412;5.436;2023-02-28T14:43:54;3.90;;;2.58;;
74044;SDS011;62389;51.412;5.436;2023-02-28T14:46:22;3.80;;;2.35;;
74044;SDS011;62389;51.412;5.436;2023-02-28T14:48:51;5.25;;;2.83;;
74044;SDS011;62389;51.412;5.436;2023-02-28T14:51:20;4.70;;;2.55;;
74044;SDS011;62389;51.412;5.436;2023-02-28T14:53:49;3.42;;;2.50;;
74044;SDS011;62389;51.412;5.436;2023-02-28T14:56:21;49.60;;;5.45;;
74044;SDS011;62389;51.412;5.436;2023-02-28T14:59:24;3.92;;;2.88;;
74044;SDS011;62389;51.412;5.436;2023-02-28T15:02:18;8.10;;;2.90;;
74044;SDS011;62389;51.412;5.436;2023-02-28T15:05:29;4.15;;;2.92;;
74044;SDS011;62389;51.412;5.436;2023-02-28T15:15:27;24.70;;;3.63;;
74044;SDS011;62389;51.412;5.436;2023-02-28T15:18:04;4.35;;;2.75;;
74044;SDS011;62389;51.412;5.436;2023-02-28T15:20:32;13.65;;;3.20;;
74044;SDS011;62389;51.412;5.436;2023-02-28T15:23:00;3.80;;;2.70;;
74044;SDS011;62389;51.412;5.436;2023-02-28T15:25:26;3.30;;;2.40;;
74044;SDS011;62389;51.412;5.436;2023-02-28T15:27:53;4.40;;;2.72;;
74044;SDS011;62389;51.412;5.436;2023-02-28T15:30:21;4.57;;;2.67;;
74044;SDS011;62389;51.412;5.436;2023-02-28T15:33:53;5.82;;;3.13;;
74044;SDS011;62389;51.412;5.436;2023-02-28T15:35:51;5.70;;;2.80;;
74044;SDS011;62389;51.412;5.436;2023-02-28T15:38:29;4.18;;;2.53;;
74044;SDS011;62389;51.412;5.436;2023-02-28T15:41:00;4.22;;;2.47;;
74044;SDS011;62389;51.412;5.436;2023-02-28T15:43:30;3.17;;;2.30;;
74044;SDS011;62389;51.412;5.436;2023-02-28T15:48:32;4.05;;;3.03;;
74044;SDS011;62389;51.412;5.436;2023-02-28T15:51:07;6.22;;;2.60;;
74044;SDS011;62389;51.412;5.436;2023-02-28T15:53:45;3.70;;;2.30;;
74044;SDS011;62389;51.412;5.436;2023-02-28T15:56:24;5.07;;;3.10;;
74044;SDS011;62389;51.412;5.436;2023-02-28T15:58:59;3.40;;;2.45;;
74044;SDS011;62389;51.412;5.436;2023-02-28T16:03:58;3.50;;;2.20;;
74044;SDS011;62389;51.412;5.436;2023-02-28T16:06:36;3.95;;;2.72;;
74044;SDS011;62389;51.412;5.436;2023-02-28T16:09:13;7.57;;;2.90;;
74044;SDS011;62389;51.412;5.436;2023-02-28T16:11:47;3.97;;;2.60;;
74044;SDS011;62389;51.412;5.436;2023-02-28T16:14:17;4.65;;;2.60;;
74044;SDS011;62389;51.412;5.436;2023-02-28T16:16:45;4.72;;;2.97;;
74044;SDS011;62389;51.412;5.436;2023-02-28T16:19:13;5.93;;;2.50;;
74044;SDS011;62389;51.412;5.436;2023-02-28T16:21:38;3.85;;;2.70;;
74044;SDS011;62389;51.412;5.436;2023-02-28T16:24:04;3.85;;;2.63;;
74044;SDS011;62389;51.412;5.436;2023-02-28T16:26:30;4.72;;;3.15;;
74044;SDS011;62389;51.412;5.436;2023-02-28T16:28:55;5.53;;;3.40;;
74044;SDS011;62389;51.412;5.436;2023-02-28T16:31:21;4.18;;;2.47;;
74044;SDS011;62389;51.412;5.436;2023-02-28T16:33:46;3.45;;;2.25;;
74044;SDS011;62389;51.412;5.436;2023-02-28T16:36:19;5.35;;;2.95;;
74044;SDS011;62389;51.412;5.436;2023-02-28T16:38:49;5.60;;;2.85;;
74044;SDS011;62389;51.412;5.436;2023-02-28T16:41:16;4.45;;;2.60;;
74044;SDS011;62389;51.412;5.436;2023-02-28T16:43:47;4.97;;;2.70;;
74044;SDS011;62389;51.412;5.436;2023-02-28T16:46:15;4.13;;;2.75;;
74044;SDS011;62389;51.412;5.436;2023-02-28T16:48:41;3.38;;;2.80;;
74044;SDS011;62389;51.412;5.436;2023-02-28T16:51:14;3.78;;;2.38;;
74044;SDS011;62389;51.412;5.436;2023-02-28T16:53:40;3.80;;;2.42;;
74044;SDS011;62389;51.412;5.436;2023-02-28T16:56:08;4.18;;;2.78;;
74044;SDS011;62389;51.412;5.436;2023-02-28T17:01:05;3.72;;;2.65;;
74044;SDS011;62389;51.412;5.436;2023-02-28T17:03:30;4.35;;;2.80;;
74044;SDS011;62389;51.412;5.436;2023-02-28T17:05:56;9.88;;;5.40;;
74044;SDS011;62389;51.412;5.436;2023-02-28T17:08:21;15.82;;;7.65;;
74044;SDS011;62389;51.412;5.436;2023-02-28T17:10:46;33.28;;;16.48;;
74044;SDS011;62389;51.412;5.436;2023-02-28T17:13:12;26.77;;;13.65;;
74044;SDS011;62389;51.412;5.436;2023-02-28T17:15:37;11.43;;;4.82;;
74044;SDS011;62389;51.412;5.436;2023-02-28T17:18:04;6.38;;;3.65;;
74044;SDS011;62389;51.412;5.436;2023-02-28T17:20:30;4.45;;;2.83;;
74044;SDS011;62389;51.412;5.436;2023-02-28T17:22:56;4.10;;;2.55;;
74044;SDS011;62389;51.412;5.436;2023-02-28T17:25:22;4.28;;;2.65;;
74044;SDS011;62389;51.412;5.436;2023-02-28T17:27:49;4.80;;;2.75;;
74044;SDS011;62389;51.412;5.436;2023-02-28T17:32:41;4.40;;;2.80;;
74044;SDS011;62389;51.412;5.436;2023-02-28T17:35:07;4.47;;;2.35;;
74044;SDS011;62389;51.412;5.436;2023-02-28T17:37:33;4.60;;;2.47;;
74044;SDS011;62389;51.412;5.436;2023-02-28T17:39:58;4.05;;;2.85;;
74044;SDS011;62389;51.412;5.436;2023-02-28T17:42:24;5.38;;;2.83;;
74044;SDS011;62389;51.412;5.436;2023-02-28T17:44:49;4.30;;;2.53;;